Time;durP1;ratioP1;P1;durP2;ratioP2;P2;SDS_P1;SDS_P2;PMS_P1;PMS_P2;Temp;Humidity;BMP_temperature;BMP_pressure;BME280_temperature;BME280_humidity;BME280_pressure;Samples;Min_cycle;Max_cycle;Signal;HPM_P1;HPM_P2
2024/04/05 00:01:38;;;;;;;2.87;1.10;;;11.70;99.90;;;;;;5082774;28;20219;-72
2024/04/05 00:04:06;;;;;;;3.60;1.33;;;11.80;99.90;;;;;;5086388;28;20765;-72
2024/04/05 00:06:32;;;;;;;3.57;1.30;;;11.80;99.90;;;;;;5089326;28;20234;-72
2024/04/05 00:08:59;;;;;;;2.53;1.07;;;11.80;99.90;;;;;;5069524;28;20199;-72
2024/04/05 00:11:25;;;;;;;0.70;0.70;;;11.80;99.90;;;;;;5072918;28;20234;-72
2024/04/05 00:13:52;;;;;;;1.60;1.00;;;11.80;99.90;;;;;;5089241;28;20250;-72
2024/04/05 00:16:19;;;;;;;3.30;1.40;;;11.90;99.90;;;;;;5083396;28;20255;-71
2024/04/05 00:18:47;;;;;;;2.17;1.00;;;11.80;99.90;;;;;;5087655;28;20207;-72
2024/04/05 00:21:13;;;;;;;2.80;1.27;;;11.90;99.90;;;;;;5068813;28;20215;-72
2024/04/05 00:23:40;;;;;;;3.10;1.60;;;11.90;99.90;;;;;;5068936;28;20235;-73
2024/04/05 00:26:06;;;;;;;2.77;0.97;;;11.80;99.90;;;;;;5069102;28;20213;-72
2024/04/05 00:28:35;;;;;;;3.63;1.53;;;11.80;99.90;;;;;;5069426;28;20219;-71
2024/04/05 00:31:01;;;;;;;2.13;1.10;;;11.80;99.90;;;;;;5070366;28;20689;-72
2024/04/05 00:33:30;;;;;;;4.97;0.90;;;11.80;99.90;;;;;;5072091;28;20203;-72
2024/04/05 00:35:57;;;;;;;2.83;1.30;;;11.80;99.90;;;;;;5069084;28;20250;-73
2024/04/05 00:38:25;;;;;;;5.40;1.17;;;11.80;99.90;;;;;;5068870;28;20231;-73
2024/04/05 00:40:51;;;;;;;3.30;1.30;;;11.90;99.90;;;;;;5069066;28;20204;-72
2024/04/05 00:43:18;;;;;;;5.90;1.70;;;11.80;99.90;;;;;;5069897;28;20223;-73
2024/04/05 00:45:46;;;;;;;2.17;1.17;;;11.80;99.90;;;;;;5068596;28;21003;-73
2024/04/05 00:48:14;;;;;;;3.87;1.27;;;11.80;99.90;;;;;;5086378;28;20207;-73
2024/04/05 00:50:41;;;;;;;4.83;1.30;;;11.80;99.90;;;;;;5088913;28;20245;-73
2024/04/05 00:53:14;;;;;;;6.10;1.40;;;11.70;99.90;;;;;;5071820;28;20298;-72
2024/04/05 00:55:42;;;;;;;4.33;1.30;;;11.70;99.90;;;;;;5068904;28;20203;-72
2024/04/05 00:58:10;;;;;;;3.37;1.40;;;11.70;99.90;;;;;;5068527;28;20560;-72
2024/04/05 01:00:36;;;;;;;4.00;1.43;;;11.70;99.90;;;;;;5068858;28;20242;-72
2024/04/05 01:03:03;;;;;;;4.30;1.60;;;11.60;99.90;;;;;;5073234;28;20282;-72
2024/04/05 01:05:29;;;;;;;5.20;1.87;;;11.60;99.90;;;;;;5068549;28;20207;-72
2024/04/05 01:07:58;;;;;;;2.93;1.40;;;11.60;99.90;;;;;;5084675;28;20249;-73
2024/04/05 01:10:24;;;;;;;5.33;1.60;;;11.60;99.90;;;;;;5088925;28;20294;-72
2024/04/05 01:12:59;;;;;;;3.27;1.33;;;11.60;99.90;;;;;;5088338;28;20286;-73
2024/04/05 01:15:25;;;;;;;2.77;1.30;;;11.60;99.90;;;;;;5083180;28;20270;-73
2024/04/05 01:17:52;;;;;;;5.73;1.60;;;11.60;99.90;;;;;;5068139;28;20239;-73
2024/04/05 01:20:18;;;;;;;3.90;1.60;;;11.60;99.90;;;;;;5068251;28;20310;-71
2024/04/05 01:22:52;;;;;;;4.63;1.60;;;11.60;99.90;;;;;;5067677;28;20219;-71
2024/04/05 01:25:20;;;;;;;5.17;1.57;;;11.60;99.90;;;;;;5070299;28;20306;-72
2024/04/05 01:27:47;;;;;;;4.23;1.23;;;11.60;99.90;;;;;;5105487;28;20205;-71
2024/04/05 01:30:13;;;;;;;4.33;1.60;;;11.60;99.90;;;;;;5107875;28;20706;-71
2024/04/05 01:32:40;;;;;;;3.83;1.47;;;11.60;99.90;;;;;;5083434;28;20198;-71
2024/04/05 01:35:06;;;;;;;4.50;1.53;;;11.60;99.90;;;;;;5087321;28;20748;-71
2024/04/05 01:37:33;;;;;;;7.57;1.50;;;11.60;99.90;;;;;;5087869;28;20210;-72
2024/04/05 01:39:59;;;;;;;2.87;0.90;;;11.60;99.90;;;;;;5082474;28;20260;-72
2024/04/05 01:42:27;;;;;;;3.90;1.57;;;11.60;99.90;;;;;;5088006;28;20246;-72
2024/04/05 01:44:53;;;;;;;1.97;0.97;;;11.60;99.90;;;;;;5087442;28;20787;-72
2024/04/05 01:47:20;;;;;;;4.50;1.37;;;11.60;99.90;;;;;;5084558;28;20291;-71
2024/04/05 01:49:46;;;;;;;2.33;1.30;;;11.60;99.90;;;;;;5067406;28;20287;-72
2024/04/05 01:52:13;;;;;;;4.40;1.37;;;11.70;99.90;;;;;;5066723;28;20298;-72
2024/04/05 01:54:39;;;;;;;2.97;1.10;;;11.70;99.90;;;;;;5069135;28;20760;-71
2024/04/05 01:57:05;;;;;;;3.13;1.40;;;11.60;99.90;;;;;;5070024;28;20222;-72
2024/04/05 01:59:33;;;;;;;3.67;1.47;;;11.70;99.90;;;;;;5067112;28;20210;-72
2024/04/05 02:02:00;;;;;;;2.80;1.10;;;11.70;99.90;;;;;;5067714;28;20760;-72
2024/04/05 02:04:25;;;;;;;5.77;1.43;;;11.70;99.90;;;;;;5071867;28;20788;-73
2024/04/05 02:06:52;;;;;;;6.10;1.50;;;11.70;99.90;;;;;;5085755;28;20297;-73
2024/04/05 02:09:18;;;;;;;2.87;1.60;;;11.70;99.90;;;;;;5087322;28;21024;-73
2024/04/05 02:11:45;;;;;;;4.77;1.80;;;11.70;99.90;;;;;;5086974;28;20199;-72
2024/04/05 02:14:11;;;;;;;2.50;1.27;;;11.70;99.90;;;;;;5090824;28;20207;-71
2024/04/05 02:16:39;;;;;;;4.23;1.60;;;11.70;99.90;;;;;;5094864;28;20195;-71
2024/04/05 02:19:05;;;;;;;4.27;1.20;;;11.70;99.90;;;;;;5098339;28;20313;-71
2024/04/05 02:21:32;;;;;;;3.90;1.47;;;11.70;99.90;;;;;;5087218;28;20286;-71
2024/04/05 02:23:58;;;;;;;4.50;1.97;;;11.70;99.90;;;;;;5066632;28;20329;-73
2024/04/05 02:26:24;;;;;;;4.80;1.20;;;11.70;99.90;;;;;;5068750;28;20282;-72
2024/04/05 02:28:50;;;;;;;3.93;1.40;;;11.70;99.90;;;;;;5074662;28;20298;-72
2024/04/05 02:31:17;;;;;;;3.27;1.17;;;11.70;99.90;;;;;;5066838;28;20295;-72
2024/04/05 02:33:44;;;;;;;2.83;1.20;;;11.70;99.90;;;;;;5069991;28;20306;-72
2024/04/05 02:36:11;;;;;;;4.80;1.50;;;11.60;99.90;;;;;;5066715;28;20211;-71
2024/04/05 02:38:37;;;;;;;3.43;1.80;;;11.60;99.90;;;;;;5086882;28;20290;-71
2024/04/05 02:41:07;;;;;;;4.17;1.30;;;11.60;99.90;;;;;;5086328;28;20752;-71
2024/04/05 02:43:33;;;;;;;3.83;1.70;;;11.60;99.90;;;;;;5084066;28;20562;-71
2024/04/05 02:46:00;;;;;;;3.93;1.63;;;11.60;99.90;;;;;;5086056;28;20211;-71
2024/04/05 02:48:26;;;;;;;6.77;1.70;;;11.60;99.90;;;;;;5067470;28;20716;-72
2024/04/05 02:50:54;;;;;;;2.83;1.30;;;11.60;99.90;;;;;;5068002;28;20302;-71
2024/04/05 02:53:20;;;;;;;4.23;1.40;;;11.50;99.90;;;;;;5071753;28;20302;-72
2024/04/05 02:55:47;;;;;;;4.13;1.53;;;11.50;99.90;;;;;;5066949;28;20295;-72
2024/04/05 02:58:13;;;;;;;4.23;1.37;;;11.50;99.90;;;;;;5066656;28;20211;-72
2024/04/05 03:00:40;;;;;;;4.50;1.50;;;11.50;99.90;;;;;;5080548;28;20327;-72
2024/04/05 03:03:06;;;;;;;5.20;1.63;;;11.50;99.90;;;;;;5079295;28;20290;-72
2024/04/05 03:05:33;;;;;;;5.23;1.37;;;11.50;99.90;;;;;;5087344;28;20321;-71
2024/04/05 03:08:00;;;;;;;4.53;1.40;;;11.40;99.90;;;;;;5086408;28;20761;-72
2024/04/05 03:10:29;;;;;;;3.90;1.30;;;11.40;99.90;;;;;;5086920;28;20207;-72
2024/04/05 03:12:54;;;;;;;7.03;1.87;;;11.40;99.90;;;;;;5086653;28;20207;-73
2024/04/05 03:15:21;;;;;;;5.63;1.37;;;11.40;99.90;;;;;;5084819;28;20227;-72
2024/04/05 03:17:47;;;;;;;2.97;1.47;;;11.40;99.90;;;;;;5085397;28;20289;-72
2024/04/05 03:20:14;;;;;;;4.20;1.63;;;11.40;99.90;;;;;;5090765;28;20237;-72
2024/04/05 03:22:41;;;;;;;3.03;1.30;;;11.40;99.90;;;;;;5081397;28;20212;-72
2024/04/05 03:25:09;;;;;;;3.90;1.70;;;11.40;99.90;;;;;;5070408;28;20238;-72
2024/04/05 03:27:35;;;;;;;5.00;1.63;;;11.40;99.90;;;;;;5083119;28;20238;-72
2024/04/05 03:30:03;;;;;;;4.97;1.83;;;11.40;99.90;;;;;;5081103;28;20745;-72
2024/04/05 03:32:30;;;;;;;6.40;1.73;;;11.40;99.90;;;;;;5069084;28;20287;-72
2024/04/05 03:34:57;;;;;;;4.97;2.10;;;11.40;99.90;;;;;;5068220;28;20207;-72
2024/04/05 03:37:23;;;;;;;5.77;1.80;;;11.40;99.90;;;;;;5068399;28;20286;-72
2024/04/05 03:39:52;;;;;;;2.53;1.63;;;11.40;99.90;;;;;;5067846;28;20211;-72
2024/04/05 03:42:21;;;;;;;2.80;1.30;;;11.40;99.90;;;;;;5069516;28;20207;-72
2024/04/05 03:44:47;;;;;;;3.70;1.43;;;11.40;99.90;;;;;;5085294;28;20230;-73
2024/04/05 03:47:14;;;;;;;3.10;1.70;;;11.40;99.90;;;;;;5086170;28;20234;-72
2024/04/05 03:49:40;;;;;;;4.00;1.60;;;11.50;99.90;;;;;;5067816;28;20239;-72
2024/04/05 03:52:08;;;;;;;3.77;1.80;;;11.50;99.90;;;;;;5067461;28;20214;-72
2024/04/05 03:54:34;;;;;;;3.57;1.17;;;11.50;99.90;;;;;;5072880;28;20226;-72
2024/04/05 03:57:00;;;;;;;4.87;1.50;;;11.50;99.90;;;;;;5084600;28;20712;-72
2024/04/05 03:59:29;;;;;;;4.70;1.57;;;11.50;99.90;;;;;;5084535;28;20271;-72
2024/04/05 04:01:55;;;;;;;4.23;1.50;;;11.60;99.90;;;;;;5081801;28;20202;-72
2024/04/05 04:04:22;;;;;;;3.63;1.50;;;11.50;99.90;;;;;;5087003;28;20261;-73
2024/04/05 04:06:49;;;;;;;3.47;1.27;;;11.50;99.90;;;;;;5087343;28;20234;-72
2024/04/05 04:09:17;;;;;;;3.30;1.10;;;11.50;99.90;;;;;;5087982;28;20290;-72
2024/04/05 04:11:42;;;;;;;2.97;1.33;;;11.50;99.90;;;;;;5080743;28;20650;-72
2024/04/05 04:14:13;;;;;;;4.43;1.50;;;11.50;99.90;;;;;;5071341;28;20265;-72
2024/04/05 04:16:41;;;;;;;5.70;1.60;;;11.50;99.90;;;;;;5067777;28;20204;-72
2024/04/05 04:19:08;;;;;;;3.13;1.57;;;11.50;99.90;;;;;;5067369;28;20725;-72
2024/04/05 04:21:34;;;;;;;3.10;1.60;;;11.50;99.90;;;;;;5067841;28;20676;-72
2024/04/05 04:24:01;;;;;;;4.90;1.70;;;11.50;99.90;;;;;;5086823;28;20304;-72
2024/04/05 04:26:27;;;;;;;2.90;1.60;;;11.50;99.90;;;;;;5073604;28;20282;-72
2024/04/05 04:28:54;;;;;;;2.63;1.70;;;11.50;99.90;;;;;;5069142;28;20561;-72
2024/04/05 04:31:21;;;;;;;2.70;1.50;;;11.40;99.90;;;;;;5079452;28;20745;-72
2024/04/05 04:33:50;;;;;;;3.70;1.57;;;11.40;99.90;;;;;;5067892;28;20214;-72
2024/04/05 04:36:18;;;;;;;7.47;2.10;;;11.40;99.90;;;;;;5067582;28;20239;-72
2024/04/05 04:38:45;;;;;;;5.00;1.60;;;11.40;99.90;;;;;;5071256;28;20554;-72
2024/04/05 04:41:12;;;;;;;5.33;2.00;;;11.40;99.90;;;;;;5081590;28;20195;-72
2024/04/05 04:43:40;;;;;;;3.43;1.53;;;11.40;99.90;;;;;;5079848;28;20195;-72
2024/04/05 04:46:06;;;;;;;4.63;1.57;;;11.40;99.90;;;;;;5082590;28;20242;-72
2024/04/05 04:48:33;;;;;;;6.77;1.80;;;11.30;99.90;;;;;;5085843;28;20322;-72
2024/04/05 04:51:00;;;;;;;5.97;1.70;;;11.40;99.90;;;;;;5086613;28;20273;-72
2024/04/05 04:53:27;;;;;;;6.20;1.67;;;11.30;99.90;;;;;;5077380;28;20198;-72
2024/04/05 04:55:53;;;;;;;3.70;1.37;;;11.30;99.90;;;;;;5087128;28;20314;-72
2024/04/05 04:58:22;;;;;;;5.63;1.70;;;11.40;99.90;;;;;;5072213;28;20207;-72
2024/04/05 05:00:49;;;;;;;4.10;1.60;;;11.30;99.90;;;;;;5076809;28;20289;-72
2024/04/05 05:03:16;;;;;;;3.23;1.50;;;11.40;99.90;;;;;;5073268;28;20214;-72
2024/04/05 05:05:42;;;;;;;7.10;1.57;;;11.30;99.90;;;;;;5076622;28;20360;-72
2024/04/05 05:08:12;;;;;;;3.13;1.40;;;11.30;99.90;;;;;;5079398;28;20209;-73
2024/04/05 05:10:38;;;;;;;10.17;2.20;;;11.30;99.90;;;;;;5075370;28;20206;-72
2024/04/05 05:13:05;;;;;;;4.67;1.67;;;11.30;99.90;;;;;;5074309;28;20195;-72
2024/04/05 05:15:31;;;;;;;3.33;1.60;;;11.30;99.90;;;;;;5070404;28;20227;-72
2024/04/05 05:17:58;;;;;;;5.90;2.00;;;11.30;99.90;;;;;;5073506;28;20569;-72
2024/04/05 05:20:26;;;;;;;5.13;1.60;;;11.30;99.90;;;;;;5074051;28;20298;-72
2024/04/05 05:22:53;;;;;;;5.77;1.90;;;11.40;99.90;;;;;;5072351;28;20207;-72
2024/04/05 05:25:21;;;;;;;4.33;1.63;;;11.40;99.90;;;;;;5073587;28;20230;-72
2024/04/05 05:27:48;;;;;;;7.77;1.77;;;11.40;99.90;;;;;;5075382;28;20214;-72
2024/04/05 05:30:14;;;;;;;4.00;1.63;;;11.40;99.90;;;;;;5076934;28;20644;-72
2024/04/05 05:32:41;;;;;;;4.53;1.97;;;11.50;99.90;;;;;;5074351;28;20277;-72
2024/04/05 05:35:08;;;;;;;4.57;1.90;;;11.50;99.90;;;;;;5083152;28;20222;-72
2024/04/05 05:37:35;;;;;;;4.50;1.50;;;11.50;99.90;;;;;;5079317;28;20203;-72
2024/04/05 05:40:01;;;;;;;4.30;1.60;;;11.50;99.90;;;;;;5075988;28;20666;-72
2024/04/05 05:42:29;;;;;;;5.73;1.60;;;11.60;99.90;;;;;;5070096;28;20290;-72
2024/04/05 05:44:55;;;;;;;4.00;1.20;;;11.60;99.90;;;;;;5081234;28;20307;-72
2024/04/05 05:47:22;;;;;;;4.10;1.70;;;11.60;99.90;;;;;;5075613;28;20287;-73
2024/04/05 05:49:49;;;;;;;5.93;1.97;;;11.70;99.90;;;;;;5075665;28;20203;-73
2024/04/05 05:52:16;;;;;;;5.90;1.80;;;11.70;99.90;;;;;;5078834;28;20219;-73
2024/04/05 05:54:42;;;;;;;5.93;1.83;;;11.70;99.90;;;;;;5079374;28;20241;-73
2024/04/05 05:57:09;;;;;;;4.27;1.73;;;11.80;99.90;;;;;;5081860;28;20234;-73
2024/04/05 05:59:36;;;;;;;3.37;1.30;;;11.80;99.90;;;;;;5070020;28;20290;-73
2024/04/05 06:02:04;;;;;;;2.60;1.43;;;11.80;99.90;;;;;;5076096;28;20262;-73
2024/04/05 06:04:30;;;;;;;5.70;1.70;;;11.80;99.90;;;;;;5076596;28;20218;-73
2024/04/05 06:06:57;;;;;;;5.97;1.83;;;11.80;99.90;;;;;;5070617;28;20250;-73
2024/04/05 06:09:23;;;;;;;5.77;1.90;;;11.80;99.90;;;;;;5076005;28;20210;-73
2024/04/05 06:11:50;;;;;;;4.20;1.70;;;11.90;99.90;;;;;;5078873;28;20194;-72
2024/04/05 06:14:16;;;;;;;7.40;1.80;;;11.90;99.90;;;;;;5076906;28;20246;-73
2024/04/05 06:16:45;;;;;;;4.93;2.07;;;11.90;99.90;;;;;;5065374;28;20192;-73
2024/04/05 06:19:11;;;;;;;5.07;2.23;;;12.00;99.90;;;;;;5071444;28;20219;-73
2024/04/05 06:21:38;;;;;;;7.50;2.00;;;12.00;99.90;;;;;;5075893;28;20211;-73
2024/04/05 06:24:04;;;;;;;6.10;1.60;;;12.10;99.90;;;;;;5068013;28;20302;-73
2024/04/05 06:26:35;;;;;;;5.33;1.90;;;12.20;99.90;;;;;;5067956;28;20256;-73
2024/04/05 06:29:01;;;;;;;4.57;2.07;;;12.30;99.90;;;;;;5086843;28;20204;-73
2024/04/05 06:31:28;;;;;;;4.60;1.63;;;12.40;99.90;;;;;;5094951;28;20228;-73
2024/04/05 06:33:55;;;;;;;5.27;2.10;;;12.50;99.90;;;;;;5085688;28;20198;-74
2024/04/05 06:36:22;;;;;;;7.13;2.03;;;12.50;99.90;;;;;;5081805;28;20211;-73
2024/04/05 06:38:48;;;;;;;7.47;1.90;;;12.60;99.90;;;;;;5077187;28;20289;-73
2024/04/05 06:41:16;;;;;;;8.63;2.27;;;12.70;99.90;;;;;;5072652;28;20198;-73
2024/04/05 06:43:41;;;;;;;9.30;2.20;;;12.70;99.90;;;;;;5084491;28;20669;-73
2024/04/05 06:46:08;;;;;;;5.77;1.70;;;12.80;99.90;;;;;;5082446;28;20241;-73
2024/04/05 06:48:35;;;;;;;4.37;1.70;;;12.70;99.90;;;;;;5076007;28;20568;-72
2024/04/05 06:51:11;;;;;;;6.13;1.87;;;12.70;99.90;;;;;;5074911;28;20256;-73
2024/04/05 06:53:37;;;;;;;5.83;2.33;;;12.70;99.90;;;;;;5077376;28;20267;-73
2024/04/05 06:56:06;;;;;;;4.67;1.70;;;12.80;99.90;;;;;;5081691;28;20203;-73
2024/04/05 06:58:32;;;;;;;3.70;1.90;;;12.80;99.90;;;;;;5075394;28;20894;-73
2024/04/05 07:01:01;;;;;;;6.90;2.20;;;12.80;99.90;;;;;;5079798;28;20202;-73
2024/04/05 07:03:27;;;;;;;6.80;2.77;;;12.90;99.90;;;;;;5083799;28;20301;-73
2024/04/05 07:06:00;;;;;;;6.53;1.97;;;12.90;99.90;;;;;;5069367;28;20235;-73
2024/04/05 07:08:28;;;;;;;6.63;2.10;;;13.00;99.90;;;;;;5069241;28;20646;-73
2024/04/05 07:10:55;;;;;;;8.60;2.30;;;13.10;99.90;;;;;;5068976;28;20208;-73
2024/04/05 07:13:21;;;;;;;8.80;2.20;;;13.10;99.90;;;;;;5069435;28;20358;-73
2024/04/05 07:15:48;;;;;;;8.73;2.07;;;13.20;99.90;;;;;;5069135;28;20298;-72
2024/04/05 07:18:14;;;;;;;6.50;1.93;;;13.20;99.90;;;;;;5068593;28;20220;-73
2024/04/05 07:20:41;;;;;;;9.67;2.40;;;13.20;99.90;;;;;;5068731;28;20198;-73
2024/04/05 07:23:07;;;;;;;6.73;2.73;;;13.30;99.90;;;;;;5069098;28;20322;-73
2024/04/05 07:25:35;;;;;;;6.90;2.30;;;13.40;99.90;;;;;;5081552;28;20322;-73
2024/04/05 07:28:02;;;;;;;7.07;2.40;;;13.50;99.90;;;;;;5081766;28;20198;-73
2024/04/05 07:30:31;;;;;;;7.67;1.93;;;13.60;99.90;;;;;;5075857;28;20199;-73
2024/04/05 07:32:58;;;;;;;7.00;2.30;;;13.60;99.90;;;;;;5076574;28;20207;-73
2024/04/05 07:35:24;;;;;;;6.63;2.30;;;13.60;99.90;;;;;;5073558;28;20199;-73
2024/04/05 07:37:50;;;;;;;11.97;2.53;;;13.70;99.90;;;;;;5077213;28;20233;-73
2024/04/05 07:40:21;;;;;;;8.17;2.23;;;13.70;99.90;;;;;;5071814;28;20243;-72
2024/04/05 07:42:52;;;;;;;9.90;2.33;;;13.80;99.90;;;;;;5079110;28;20203;-73
2024/04/05 07:45:19;;;;;;;9.10;2.40;;;13.80;99.90;;;;;;5077736;28;20222;-73
2024/04/05 07:47:47;;;;;;;6.43;2.10;;;13.80;99.90;;;;;;5078228;28;20713;-73
2024/04/05 07:50:14;;;;;;;8.43;2.10;;;13.80;99.90;;;;;;5074526;28;20336;-73
2024/04/05 07:52:40;;;;;;;7.80;2.40;;;13.80;99.90;;;;;;5078275;28;20289;-73
2024/04/05 07:55:08;;;;;;;8.73;2.77;;;13.90;99.90;;;;;;5080649;28;20294;-73
2024/04/05 07:57:35;;;;;;;7.33;2.33;;;13.90;99.90;;;;;;5080434;28;20299;-73
2024/04/05 08:00:05;;;;;;;6.57;2.70;;;14.00;99.90;;;;;;5075653;28;20214;-73
2024/04/05 08:02:31;;;;;;;8.40;2.20;;;14.00;99.90;;;;;;5076771;28;20197;-73
2024/04/05 08:04:58;;;;;;;4.93;2.50;;;14.10;99.90;;;;;;5074995;28;20223;-73
2024/04/05 08:07:25;;;;;;;6.50;2.43;;;14.10;99.90;;;;;;5080371;28;20199;-73
2024/04/05 08:09:53;;;;;;;7.90;2.63;;;14.20;99.90;;;;;;5082112;28;20203;-73
2024/04/05 08:12:19;;;;;;;7.53;2.53;;;14.20;99.90;;;;;;5076772;28;20227;-73
2024/04/05 08:14:46;;;;;;;7.23;2.33;;;14.30;99.90;;;;;;5079987;28;20234;-73
2024/04/05 08:17:13;;;;;;;10.13;2.37;;;14.40;99.90;;;;;;5079095;28;20199;-73
2024/04/05 08:19:40;;;;;;;7.53;2.23;;;14.50;99.90;;;;;;5084960;28;20866;-73
2024/04/05 08:22:06;;;;;;;6.80;2.33;;;14.50;99.90;;;;;;5077471;28;20694;-73
2024/04/05 08:24:34;;;;;;;5.97;2.30;;;14.40;99.90;;;;;;5079639;28;20277;-73
2024/04/05 08:27:00;;;;;;;6.13;2.23;;;14.50;99.90;;;;;;5075847;28;20203;-73
2024/04/05 08:29:27;;;;;;;5.83;2.20;;;14.40;99.90;;;;;;5074075;28;20205;-73
2024/04/05 08:31:53;;;;;;;9.80;2.33;;;14.40;99.90;;;;;;5071965;28;20200;-73
2024/04/05 08:34:22;;;;;;;10.13;2.47;;;14.40;99.90;;;;;;5080600;28;20198;-73
2024/04/05 08:36:48;;;;;;;6.40;2.40;;;14.40;99.90;;;;;;5081581;28;20377;-73
2024/04/05 08:39:17;;;;;;;6.70;1.97;;;14.40;99.90;;;;;;5075421;28;20629;-73
2024/04/05 08:41:44;;;;;;;6.87;2.43;;;14.50;99.90;;;;;;5072588;28;20219;-72
2024/04/05 08:44:12;;;;;;;5.60;2.20;;;14.50;99.90;;;;;;5077179;28;20226;-71
2024/04/05 08:46:39;;;;;;;5.10;2.60;;;14.60;99.90;;;;;;5070469;28;20243;-72
2024/04/05 08:49:06;;;;;;;8.30;2.77;;;14.60;99.90;;;;;;5081917;28;20264;-71
2024/04/05 08:51:34;;;;;;;9.07;2.47;;;14.70;99.90;;;;;;5080053;28;20278;-71
2024/04/05 08:54:02;;;;;;;6.17;2.20;;;14.80;99.90;;;;;;5073958;28;20718;-71
2024/04/05 08:56:29;;;;;;;4.80;2.00;;;14.80;99.90;;;;;;5072608;28;20753;-71
2024/04/05 08:58:56;;;;;;;7.63;2.43;;;14.80;99.90;;;;;;5084871;28;20652;-71
2024/04/05 09:01:22;;;;;;;6.73;2.27;;;14.90;99.90;;;;;;5083414;28;20293;-72
2024/04/05 09:03:49;;;;;;;6.40;1.97;;;14.90;99.90;;;;;;5078694;28;20573;-72
2024/04/05 09:06:15;;;;;;;6.67;2.93;;;14.90;99.90;;;;;;5066111;28;20223;-73
2024/04/05 09:08:48;;;;;;;6.07;2.03;;;15.00;99.90;;;;;;5066974;28;20204;-72
2024/04/05 09:11:22;;;;;;;5.87;2.40;;;15.00;99.90;;;;;;5066211;28;20253;-72
2024/04/05 09:13:56;;;;;;;4.00;1.70;;;15.10;99.90;;;;;;5066437;28;20642;-72
2024/04/05 09:16:25;;;;;;;4.93;1.83;;;15.20;99.90;;;;;;5066074;28;20186;-72
2024/04/05 09:18:52;;;;;;;4.37;1.70;;;15.20;99.90;;;;;;5074195;28;20278;-72
2024/04/05 09:21:19;;;;;;;4.63;1.70;;;15.20;99.90;;;;;;5077004;28;20613;-72
2024/04/05 09:23:49;;;;;;;6.03;1.87;;;15.20;99.90;;;;;;5085421;28;20203;-72
2024/04/05 09:26:21;;;;;;;4.57;1.67;;;15.20;99.90;;;;;;5089003;28;20222;-71
2024/04/05 09:28:59;;;;;;;4.57;1.77;;;15.20;99.90;;;;;;5096238;28;20833;-73
2024/04/05 09:31:25;;;;;;;2.70;1.50;;;15.20;99.90;;;;;;5093498;28;20204;-73
2024/04/05 09:34:05;;;;;;;4.27;1.57;;;15.10;99.90;;;;;;5083560;28;20233;-73
2024/04/05 09:36:32;;;;;;;3.57;1.83;;;15.10;99.90;;;;;;5075477;28;20192;-73
2024/04/05 09:39:03;;;;;;;5.60;2.27;;;15.10;99.90;;;;;;5077251;28;20986;-73
2024/04/05 09:41:31;;;;;;;5.53;1.77;;;15.10;99.90;;;;;;5073987;28;21063;-73
2024/04/05 09:44:01;;;;;;;5.17;1.90;;;15.00;99.90;;;;;;5078747;28;20195;-73
2024/04/05 09:46:28;;;;;;;6.10;2.23;;;15.10;99.90;;;;;;5075499;28;20577;-73
2024/04/05 09:48:56;;;;;;;4.73;2.10;;;15.10;99.90;;;;;;5072333;28;20203;-73
2024/04/05 09:51:26;;;;;;;7.67;1.90;;;15.10;99.90;;;;;;5081910;28;20238;-73
2024/04/05 09:53:54;;;;;;;5.53;1.80;;;15.10;99.90;;;;;;5066178;28;20265;-73
2024/04/05 09:56:25;;;;;;;2.70;1.40;;;15.20;99.90;;;;;;5075916;28;20210;-73
2024/04/05 09:58:54;;;;;;;4.20;1.60;;;15.20;99.90;;;;;;5086358;28;20235;-73
2024/04/05 10:01:21;;;;;;;4.70;1.83;;;15.30;99.90;;;;;;5086205;28;20213;-73
2024/04/05 10:03:48;;;;;;;3.87;2.07;;;15.50;99.90;;;;;;5074995;28;20302;-73
2024/04/05 10:06:15;;;;;;;7.63;2.53;;;15.70;99.90;;;;;;5075791;28;20791;-73
2024/04/05 10:08:42;;;;;;;5.77;2.23;;;15.90;99.90;;;;;;5076654;28;20199;-73
2024/04/05 10:11:10;;;;;;;3.33;1.87;;;16.20;99.90;;;;;;5076234;28;20226;-73
2024/04/05 10:13:39;;;;;;;4.13;1.80;;;16.30;99.90;;;;;;5075613;28;20675;-73
2024/04/05 10:16:05;;;;;;;3.47;1.63;;;16.40;99.90;;;;;;5073730;28;20254;-73
2024/04/05 10:18:34;;;;;;;4.73;2.27;;;16.40;99.90;;;;;;5075244;28;20261;-71
2024/04/05 10:21:02;;;;;;;6.57;2.30;;;16.50;99.90;;;;;;5072780;28;20207;-73
2024/04/05 10:23:30;;;;;;;5.93;1.80;;;16.50;99.90;;;;;;5070328;28;20204;-73
2024/04/05 10:25:56;;;;;;;3.83;2.20;;;16.50;99.90;;;;;;5075961;28;20692;-73
2024/04/05 10:28:23;;;;;;;4.90;1.77;;;16.40;99.90;;;;;;5074722;28;20225;-73
2024/04/05 10:30:50;;;;;;;7.30;2.43;;;16.50;99.90;;;;;;5073789;28;20290;-73
2024/04/05 10:33:19;;;;;;;5.90;2.03;;;16.40;99.90;;;;;;5075964;28;20240;-73
2024/04/05 10:35:45;;;;;;;7.50;2.10;;;16.50;99.90;;;;;;5073972;28;20206;-71
2024/04/05 10:38:12;;;;;;;5.70;2.10;;;16.60;99.90;;;;;;5078009;28;20282;-72
2024/04/05 10:40:38;;;;;;;7.10;2.00;;;16.60;99.90;;;;;;5075799;28;20212;-72
2024/04/05 10:43:09;;;;;;;5.70;2.03;;;16.60;99.90;;;;;;5077277;28;20195;-71
2024/04/05 10:45:35;;;;;;;6.23;2.20;;;16.70;99.90;;;;;;5075454;28;20226;-72
2024/04/05 10:48:05;;;;;;;4.57;2.17;;;16.80;99.90;;;;;;5075807;28;20302;-72
2024/04/05 10:50:36;;;;;;;2.63;1.63;;;16.80;99.90;;;;;;5076960;28;20701;-72
2024/04/05 10:53:05;;;;;;;4.00;2.13;;;16.90;99.90;;;;;;5074737;28;20285;-72
2024/04/05 10:55:31;;;;;;;4.83;2.00;;;17.10;99.90;;;;;;5074417;28;20202;-71
2024/04/05 10:58:02;;;;;;;4.83;1.93;;;17.10;99.90;;;;;;5070302;28;20797;-72
2024/04/05 11:00:28;;;;;;;4.67;2.27;;;17.10;99.90;;;;;;5076436;28;20279;-72
2024/04/05 11:02:55;;;;;;;5.50;2.30;;;17.20;99.90;;;;;;5074502;28;20217;-72
2024/04/05 11:05:22;;;;;;;4.53;1.80;;;17.30;99.90;;;;;;5075417;28;20276;-73
2024/04/05 11:07:59;;;;;;;3.77;1.83;;;17.50;99.90;;;;;;5077048;28;20195;-72
2024/04/05 11:10:29;;;;;;;4.00;2.00;;;17.60;99.90;;;;;;5074880;28;20202;-72
2024/04/05 11:12:56;;;;;;;4.20;1.90;;;17.70;99.90;;;;;;5074508;28;20283;-73
2024/04/05 11:15:23;;;;;;;4.03;2.10;;;17.80;99.90;;;;;;5074241;28;20266;-73
2024/04/05 11:18:00;;;;;;;3.67;2.00;;;17.90;99.90;;;;;;5073572;28;20223;-73
2024/04/05 11:20:29;;;;;;;4.80;2.00;;;17.90;99.90;;;;;;5073479;28;20227;-72
2024/04/05 11:22:56;;;;;;;5.27;2.17;;;17.90;99.90;;;;;;5064394;28;20236;-72
2024/04/05 11:25:22;;;;;;;5.67;2.07;;;17.70;99.90;;;;;;5065039;28;20211;-72
2024/04/05 11:27:49;;;;;;;6.60;2.17;;;17.80;99.90;;;;;;5072788;28;20246;-72
2024/04/05 11:30:15;;;;;;;4.47;2.17;;;17.80;99.90;;;;;;5075600;28;20199;-72
2024/04/05 11:32:43;;;;;;;3.73;2.10;;;17.70;99.90;;;;;;5076160;28;20231;-72
2024/04/05 11:35:12;;;;;;;6.37;2.20;;;17.70;99.90;;;;;;5076227;28;20203;-72
2024/04/05 11:37:43;;;;;;;4.03;1.80;;;17.50;99.90;;;;;;5077160;28;20208;-72
2024/04/05 11:40:10;;;;;;;3.33;1.73;;;17.40;99.90;;;;;;5079483;28;20279;-72
2024/04/05 11:42:38;;;;;;;3.13;1.53;;;17.40;99.90;;;;;;5076052;28;20919;-72
2024/04/05 11:45:05;;;;;;;6.33;1.93;;;17.40;99.90;;;;;;5079328;28;20203;-72
2024/04/05 11:47:33;;;;;;;4.90;2.10;;;17.60;99.90;;;;;;5074912;28;20245;-72
2024/04/05 11:50:00;;;;;;;5.87;2.00;;;17.80;99.90;;;;;;5077236;28;20669;-72
2024/04/05 11:52:27;;;;;;;4.60;2.17;;;18.10;99.90;;;;;;5079263;28;20209;-72
2024/04/05 11:54:54;;;;;;;3.57;1.50;;;18.30;99.90;;;;;;5068709;28;20227;-72
2024/04/05 11:57:21;;;;;;;7.20;2.20;;;18.40;99.90;;;;;;5068145;28;20192;-73
2024/04/05 11:59:47;;;;;;;4.30;1.73;;;18.40;99.90;;;;;;5068629;28;20231;-73
2024/04/05 12:02:14;;;;;;;4.03;2.00;;;18.40;99.90;;;;;;5069039;28;20782;-74
2024/04/05 12:04:40;;;;;;;5.27;2.10;;;18.30;99.90;;;;;;5069293;28;20207;-73
2024/04/05 12:07:09;;;;;;;3.07;1.50;;;18.20;99.90;;;;;;5082305;28;20363;-73
2024/04/05 12:09:36;;;;;;;5.43;1.90;;;18.00;99.90;;;;;;5089114;28;20392;-73
2024/04/05 12:12:06;;;;;;;6.87;2.30;;;18.00;99.90;;;;;;5074152;28;20198;-74
2024/04/05 12:14:33;;;;;;;6.00;1.97;;;18.00;99.90;;;;;;5088886;28;20243;-73
2024/04/05 12:17:00;;;;;;;5.77;2.00;;;18.20;99.90;;;;;;5089284;28;20305;-73
2024/04/05 12:19:26;;;;;;;5.43;2.10;;;18.20;99.90;;;;;;5089625;28;20203;-73
2024/04/05 12:21:53;;;;;;;3.73;1.87;;;18.30;99.90;;;;;;5086301;28;20198;-73
2024/04/05 12:24:19;;;;;;;4.60;2.07;;;18.20;99.90;;;;;;5086675;28;20297;-73
2024/04/05 12:26:46;;;;;;;7.27;3.57;;;18.20;99.90;;;;;;5086948;28;20232;-73
2024/04/05 12:29:13;;;;;;;2.73;2.20;;;18.20;99.90;;;;;;5087346;28;20712;-73
2024/04/05 12:31:41;;;;;;;5.77;1.80;;;18.20;99.90;;;;;;5084655;28;20302;-74
2024/04/05 12:34:07;;;;;;;5.50;1.77;;;18.10;99.90;;;;;;5068809;28;20242;-73
2024/04/05 12:36:34;;;;;;;2.90;1.80;;;18.30;99.90;;;;;;5068468;28;20700;-73
2024/04/05 12:39:06;;;;;;;3.97;1.67;;;18.20;99.90;;;;;;5068932;28;20609;-73
2024/04/05 12:41:34;;;;;;;5.33;1.80;;;18.30;99.90;;;;;;5085350;28;20198;-73
2024/04/05 12:44:00;;;;;;;4.93;1.97;;;18.40;99.90;;;;;;5088617;28;20218;-73
2024/04/05 12:46:29;;;;;;;3.10;1.43;;;18.50;99.90;;;;;;5080104;28;20219;-73